AirNav   Phillips 66 Aviation Fuel
 
 398 users online  

81R San Saba County Municipal Airport
San Saba, Texas, USA


FAA INFORMATION EFFECTIVE 01 FEBRUARY 2018

Location

FAA Identifier: 81R
Lat/Long: 31-14-08.7015N / 098-43-03.7275W
31-14.145025N / 098-43.062125W
31.2357504 / -98.7177021
(estimated)
Elevation: 1255 ft. / 383 m (estimated)
Variation: 07E (1985)
From city: 3 miles N of SAN SABA, TX
Time zone: UTC -6 (UTC -5 during Daylight Saving Time)
Zip code: 76877

Airport Operations

Airport use: Open to the public
Activation date: 08/1963
Control tower: no
ARTCC: HOUSTON CENTER
FSS: SAN ANGELO FLIGHT SERVICE STATION
NOTAMs facility: SJT (NOTAM-D service available)
Attendance: UNATNDD
Wind indicator: lighted
Segmented circle: yes
Lights: DUSK-DAWN. ACTVT MIRL RY 13/31 - CTAF.
Beacon: white-green (lighted land airport)
Operates sunset to sunrise.

Airport Communications

CTAF/UNICOM: 122.8
WX AWOS-3: PHONE 325-372-6027

Nearby radio navigation aids

VOR radial/distance  VOR name  Freq  Var
LLOr360/26.6LLANO VORTAC108.2008E
AGJr271/29.7GOOCH SPRINGS VORTAC112.5005E

 
NDB name  Hdg/Dist  Freq  Var  ID
BRADY077/31.238007EBBD -... -... -..

Airport Services

Fuel available: 100LL
EMERG FUEL ONLY CALL 325-372-3722.
Parking: tiedowns
Airframe service: NONE
Powerplant service: NONE
Bottled oxygen: NONE
Bulk oxygen: NONE

Runway Information

Runway 13/31

Dimensions: 4205 x 60 ft. / 1282 x 18 m
Surface: asphalt, in good condition
Weight bearing capacity: 
Single wheel: 12.5
Runway edge lights: medium intensity
RUNWAY 13  RUNWAY 31
Latitude: 31-14.385783N31-13.904267N
Longitude: 098-43.352683W098-42.771567W
Elevation: 1255.2 ft.1245.7 ft.
Gradient: 0.2%0.2%
Traffic pattern: leftleft
Runway heading: 127 magnetic, 134 true307 magnetic, 314 true
Markings: basic, in good conditionbasic, in good condition
Visual slope indicator: 2-light PAPI on left (3.00 degrees glide path)2-light PAPI on left (3.00 degrees glide path)
Obstructions: 4 ft. hill, 340 ft. from runway, 35:1 slope to clear20 ft. tree, 536 ft. from runway, 55 ft. left of centerline, 16:1 slope to clear

Airport Ownership and Management from official FAA records

Ownership: Publicly-owned
Owner: SAN SABA CITY COUNTY
500 E. WALLACE
SAN SABA, TX 76877
Phone 325-372-5144
Manager: STEVE DYER
567 C.R. 105
SAN SABA, TX 76877
Phone 325-372-3380

Airport Operational Statistics

Aircraft based on the field: 6
Single engine airplanes: 6
    
Aircraft operations: avg 54/week *
43% local general aviation
36% military
22% transient general aviation
* for 12-month period ending 31 March 2014

Additional Remarks

JET A FUEL AVBL FOR HELICOPTERS ONLY.
RWY 13 -10 FT DRAINAGE DITCH 30-180 FT FM THLD, 60 FT RIGHT OF CNTRLN; -5 FT DITCH 80 FT LEFT OF CNTRLN NEAR THLD; -5 FT DITCH 118 FT RIGHT OF CNTRLN NEAR THLD

Instrument Procedures

There are no published instrument procedures at 81R.

Some nearby airports with instrument procedures:

KAQO - Llano Municipal Airport (27 nm S)
KLZZ - Lampasas Airport (28 nm E)
KBBD - Curtis Field Airport (31 nm W)
KBWD - Brownwood Regional Airport (36 nm N)
T92 - Mason County Airport (39 nm SW)
 
Loc | Ops | Rwys | IFR | FBO | Links
Com | Nav | Svcs | Stats | Notes

AirNav Hotels Sweepstakes
 
Area around 81R (San Saba County Municipal Airport)
 
Road maps at: MapQuest Bing Google
 
Aerial photo
WARNING: Photo may not be current or correct
Aerial photo of 81R (San Saba County Municipal Airport)
Photo taken 27-Feb-2005

Do you have a better or more recent aerial photo of San Saba County Municipal Airport that you would like to share? If so, please send us your photo.

 
Sectional chart

 
Airport distance calculator
Flying to San Saba County Municipal Airport? Find the distance to fly.

From to 81R

Sunrise and sunset
Times for 19-Feb-2018
 Local
(UTC-6)
 Zulu
(UTC)
Morning civil twilight06:4912:49
Sunrise07:1313:13
Sunset18:2400:24
Evening civil twilight18:4900:49

Current date and time
Zulu (UTC)  19-Feb-2018 07:02:08
Local (UTC-6)  19-Feb-2018 01:02:08
 
METAR
KAQO 
27nm S 
190635Z AUTO 11007KT SCT026 19/16 RMK AO2 PWINO TSNO
KLZZ 
28nm E 
190655Z AUTO 17010KT 10SM BKN019 19/16 A2988 RMK AO2 T01860160
KMNZ 
39nm NE 
190655Z AUTO 18018G23KT 10SM CLR 18/16 A2986 RMK AO2 T01820164
KBMQ 
39nm SE 
190653Z AUTO 17014G24KT 10SM BKN016 18/17 A2990 RMK AO2 RAB08E38 SLP116 P0000 T01830167
KMKN 
41nm N 
190655Z AUTO 18014G21KT 10SM CLR 19/15 A2983 RMK AO2 T01860150
KDZB 
46nm SE 
190655Z AUTO 15010G15KT 110V190 10SM OVC015 20/17 A2990 RMK AO2 T01980165
KGRK 
47nm E 
190658Z AUTO 16015G21KT 10SM OVC014 19/17 A2987 RMK AO2 SLP110 T01920168
KGOP 
48nm E 
190655Z AUTO 14012KT 10SM SCT019 19/17 A2989 RMK AO2
TAF
KBBD 
31nm W 
190520Z 1906/2006 16012KT P6SM BKN250 FM190900 16009KT P6SM OVC015 FM192100 16011KT P6SM BKN050 AMD NOT SKED
NOTAMs
Click for the latest NOTAMs
NOTAMs are issued by the DoD/FAA and will open in a separate window not controlled by AirNav.

 

 
 

FBO, Fuel Providers, and Aircraft Ground Support

  
 Business Name 
 
 Contact 
 
 Services / Description 
 
Fuel Prices
 
Comments
  
San Saba County Municipal Airport 325-372-3380
no information available

If you are affiliated with San Saba County Municipal Airport and would like to show here your services, contact info, web link, logo, and more, click here
100LL
SS $4.00 
 Updated 06-Nov-2016
 
   write
SS=Self service
Update Fuel Prices
 

Would you like to see your business listed on this page?

 If your business provides an interesting product or service to pilots, flight crews, aircraft, or users of the San Saba County Municipal Airport, you should consider listing it here.  To start the listing process, click on the button below
 
Add a business
 

Other Pages about San Saba County Municipal Airport

Update a link
 
Copyright © AirNav, LLC. All rights reserved. Privacy Policy  Contact